sensor_id;sensor_type;location;lat;lon;timestamp;P1;durP1;ratioP1;P2;durP2;ratioP2
4565;SDS011;2295;51.050;14.608;2024-03-02T00:01:52;30.40;;;17.42;;
4565;SDS011;2295;51.050;14.608;2024-03-02T00:04:20;32.58;;;17.60;;
4565;SDS011;2295;51.050;14.608;2024-03-02T00:06:51;31.90;;;18.00;;
4565;SDS011;2295;51.050;14.608;2024-03-02T00:09:21;32.60;;;18.05;;
4565;SDS011;2295;51.050;14.608;2024-03-02T00:11:51;28.13;;;16.70;;
4565;SDS011;2295;51.050;14.608;2024-03-02T00:14:20;32.72;;;17.60;;
4565;SDS011;2295;51.050;14.608;2024-03-02T00:16:50;30.15;;;16.50;;
4565;SDS011;2295;51.050;14.608;2024-03-02T00:19:19;30.45;;;16.80;;
4565;SDS011;2295;51.050;14.608;2024-03-02T00:21:48;28.75;;;16.98;;
4565;SDS011;2295;51.050;14.608;2024-03-02T00:24:18;26.38;;;16.63;;
4565;SDS011;2295;51.050;14.608;2024-03-02T00:26:49;31.50;;;18.35;;
4565;SDS011;2295;51.050;14.608;2024-03-02T00:29:19;33.22;;;18.35;;
4565;SDS011;2295;51.050;14.608;2024-03-02T00:31:47;27.35;;;17.02;;
4565;SDS011;2295;51.050;14.608;2024-03-02T00:34:16;26.25;;;16.80;;
4565;SDS011;2295;51.050;14.608;2024-03-02T00:36:45;37.20;;;17.73;;
4565;SDS011;2295;51.050;14.608;2024-03-02T00:39:14;31.55;;;19.40;;
4565;SDS011;2295;51.050;14.608;2024-03-02T00:41:44;27.50;;;16.52;;
4565;SDS011;2295;51.050;14.608;2024-03-02T00:44:13;27.63;;;15.23;;
4565;SDS011;2295;51.050;14.608;2024-03-02T00:46:43;30.75;;;17.17;;
4565;SDS011;2295;51.050;14.608;2024-03-02T00:49:12;30.92;;;18.20;;
4565;SDS011;2295;51.050;14.608;2024-03-02T00:51:47;28.45;;;17.95;;
4565;SDS011;2295;51.050;14.608;2024-03-02T00:54:19;34.83;;;18.52;;
4565;SDS011;2295;51.050;14.608;2024-03-02T00:56:50;31.70;;;18.20;;
4565;SDS011;2295;51.050;14.608;2024-03-02T00:59:19;32.38;;;17.90;;
4565;SDS011;2295;51.050;14.608;2024-03-02T01:01:48;33.67;;;19.15;;
4565;SDS011;2295;51.050;14.608;2024-03-02T01:04:17;33.38;;;19.40;;
4565;SDS011;2295;51.050;14.608;2024-03-02T01:06:46;36.55;;;19.42;;
4565;SDS011;2295;51.050;14.608;2024-03-02T01:09:14;45.60;;;19.30;;
4565;SDS011;2295;51.050;14.608;2024-03-02T01:11:44;38.42;;;21.05;;
4565;SDS011;2295;51.050;14.608;2024-03-02T01:14:13;41.85;;;21.05;;
4565;SDS011;2295;51.050;14.608;2024-03-02T01:16:41;33.58;;;19.70;;
4565;SDS011;2295;51.050;14.608;2024-03-02T01:19:11;33.88;;;19.05;;
4565;SDS011;2295;51.050;14.608;2024-03-02T01:21:39;40.80;;;19.13;;
4565;SDS011;2295;51.050;14.608;2024-03-02T01:24:08;37.42;;;20.52;;
4565;SDS011;2295;51.050;14.608;2024-03-02T01:26:36;37.28;;;20.15;;
4565;SDS011;2295;51.050;14.608;2024-03-02T01:29:04;38.05;;;19.92;;
4565;SDS011;2295;51.050;14.608;2024-03-02T01:31:33;39.40;;;20.60;;
4565;SDS011;2295;51.050;14.608;2024-03-02T01:34:01;43.53;;;21.90;;
4565;SDS011;2295;51.050;14.608;2024-03-02T01:36:31;40.72;;;21.73;;
4565;SDS011;2295;51.050;14.608;2024-03-02T01:38:59;47.47;;;23.13;;
4565;SDS011;2295;51.050;14.608;2024-03-02T01:41:27;40.38;;;21.40;;
4565;SDS011;2295;51.050;14.608;2024-03-02T01:43:56;45.17;;;22.73;;
4565;SDS011;2295;51.050;14.608;2024-03-02T01:46:24;43.40;;;22.83;;
4565;SDS011;2295;51.050;14.608;2024-03-02T01:48:52;39.60;;;21.20;;
4565;SDS011;2295;51.050;14.608;2024-03-02T01:51:21;44.03;;;22.30;;
4565;SDS011;2295;51.050;14.608;2024-03-02T01:53:51;39.35;;;21.65;;
4565;SDS011;2295;51.050;14.608;2024-03-02T01:56:19;49.47;;;22.60;;
4565;SDS011;2295;51.050;14.608;2024-03-02T01:58:48;46.08;;;22.40;;
4565;SDS011;2295;51.050;14.608;2024-03-02T02:01:16;43.92;;;23.00;;
4565;SDS011;2295;51.050;14.608;2024-03-02T02:03:45;50.92;;;24.17;;
4565;SDS011;2295;51.050;14.608;2024-03-02T02:06:13;55.97;;;23.25;;
4565;SDS011;2295;51.050;14.608;2024-03-02T02:08:41;67.07;;;28.65;;
4565;SDS011;2295;51.050;14.608;2024-03-02T02:11:11;67.05;;;28.67;;
4565;SDS011;2295;51.050;14.608;2024-03-02T02:13:42;77.53;;;29.90;;
4565;SDS011;2295;51.050;14.608;2024-03-02T02:16:11;76.65;;;29.63;;
4565;SDS011;2295;51.050;14.608;2024-03-02T02:18:39;73.97;;;30.70;;
4565;SDS011;2295;51.050;14.608;2024-03-02T02:21:08;88.95;;;34.15;;
4565;SDS011;2295;51.050;14.608;2024-03-02T02:23:37;85.05;;;33.70;;
4565;SDS011;2295;51.050;14.608;2024-03-02T02:26:06;74.38;;;30.60;;
4565;SDS011;2295;51.050;14.608;2024-03-02T02:28:34;77.22;;;33.35;;
4565;SDS011;2295;51.050;14.608;2024-03-02T02:31:02;79.03;;;30.90;;
4565;SDS011;2295;51.050;14.608;2024-03-02T02:33:31;70.15;;;31.88;;
4565;SDS011;2295;51.050;14.608;2024-03-02T02:35:59;73.38;;;30.90;;
4565;SDS011;2295;51.050;14.608;2024-03-02T02:38:28;72.93;;;31.60;;
4565;SDS011;2295;51.050;14.608;2024-03-02T02:40:57;84.18;;;34.17;;
4565;SDS011;2295;51.050;14.608;2024-03-02T02:43:26;77.28;;;32.53;;
4565;SDS011;2295;51.050;14.608;2024-03-02T02:45:54;73.07;;;33.05;;
4565;SDS011;2295;51.050;14.608;2024-03-02T02:48:22;71.47;;;32.13;;
4565;SDS011;2295;51.050;14.608;2024-03-02T02:50:51;78.28;;;31.83;;
4565;SDS011;2295;51.050;14.608;2024-03-02T02:53:19;77.05;;;33.22;;
4565;SDS011;2295;51.050;14.608;2024-03-02T02:55:47;77.70;;;33.45;;
4565;SDS011;2295;51.050;14.608;2024-03-02T02:58:17;78.57;;;33.83;;
4565;SDS011;2295;51.050;14.608;2024-03-02T03:00:45;77.78;;;33.92;;
4565;SDS011;2295;51.050;14.608;2024-03-02T03:03:14;80.25;;;34.25;;
4565;SDS011;2295;51.050;14.608;2024-03-02T03:05:42;79.93;;;35.58;;
4565;SDS011;2295;51.050;14.608;2024-03-02T03:08:10;82.20;;;33.75;;
4565;SDS011;2295;51.050;14.608;2024-03-02T03:10:39;73.35;;;31.65;;
4565;SDS011;2295;51.050;14.608;2024-03-02T03:13:07;91.47;;;34.83;;
4565;SDS011;2295;51.050;14.608;2024-03-02T03:15:37;75.18;;;33.05;;
4565;SDS011;2295;51.050;14.608;2024-03-02T03:18:06;85.50;;;34.45;;
4565;SDS011;2295;51.050;14.608;2024-03-02T03:20:35;83.20;;;33.47;;
4565;SDS011;2295;51.050;14.608;2024-03-02T03:23:04;93.30;;;33.78;;
4565;SDS011;2295;51.050;14.608;2024-03-02T03:25:32;90.93;;;35.55;;
4565;SDS011;2295;51.050;14.608;2024-03-02T03:28:01;91.25;;;36.35;;
4565;SDS011;2295;51.050;14.608;2024-03-02T03:30:30;87.45;;;34.60;;
4565;SDS011;2295;51.050;14.608;2024-03-02T03:33:00;91.55;;;34.42;;
4565;SDS011;2295;51.050;14.608;2024-03-02T03:35:28;96.78;;;38.05;;
4565;SDS011;2295;51.050;14.608;2024-03-02T03:37:56;87.20;;;36.60;;
4565;SDS011;2295;51.050;14.608;2024-03-02T03:40:25;90.93;;;37.60;;
4565;SDS011;2295;51.050;14.608;2024-03-02T03:42:53;100.75;;;38.22;;
4565;SDS011;2295;51.050;14.608;2024-03-02T03:45:23;100.10;;;37.95;;
4565;SDS011;2295;51.050;14.608;2024-03-02T03:47:52;103.55;;;38.65;;
4565;SDS011;2295;51.050;14.608;2024-03-02T03:50:22;92.85;;;38.10;;
4565;SDS011;2295;51.050;14.608;2024-03-02T03:52:51;97.97;;;40.05;;
4565;SDS011;2295;51.050;14.608;2024-03-02T03:55:19;98.03;;;40.03;;
4565;SDS011;2295;51.050;14.608;2024-03-02T03:57:47;90.85;;;37.88;;
4565;SDS011;2295;51.050;14.608;2024-03-02T04:00:16;98.57;;;38.10;;
4565;SDS011;2295;51.050;14.608;2024-03-02T04:02:44;100.90;;;39.83;;
4565;SDS011;2295;51.050;14.608;2024-03-02T04:05:13;95.50;;;38.38;;
4565;SDS011;2295;51.050;14.608;2024-03-02T04:07:42;97.68;;;38.53;;
4565;SDS011;2295;51.050;14.608;2024-03-02T04:10:11;105.97;;;40.55;;
4565;SDS011;2295;51.050;14.608;2024-03-02T04:12:39;102.78;;;40.58;;
4565;SDS011;2295;51.050;14.608;2024-03-02T04:15:08;89.95;;;39.30;;
4565;SDS011;2295;51.050;14.608;2024-03-02T04:17:36;97.47;;;38.85;;
4565;SDS011;2295;51.050;14.608;2024-03-02T04:20:05;107.25;;;40.03;;
4565;SDS011;2295;51.050;14.608;2024-03-02T04:22:34;95.95;;;38.13;;
4565;SDS011;2295;51.050;14.608;2024-03-02T04:25:04;87.70;;;37.42;;
4565;SDS011;2295;51.050;14.608;2024-03-02T04:27:33;103.15;;;40.28;;
4565;SDS011;2295;51.050;14.608;2024-03-02T04:30:03;110.88;;;40.03;;
4565;SDS011;2295;51.050;14.608;2024-03-02T04:32:33;97.93;;;36.97;;
4565;SDS011;2295;51.050;14.608;2024-03-02T04:35:03;104.93;;;39.92;;
4565;SDS011;2295;51.050;14.608;2024-03-02T04:37:33;96.60;;;38.97;;
4565;SDS011;2295;51.050;14.608;2024-03-02T04:40:02;110.47;;;42.08;;
4565;SDS011;2295;51.050;14.608;2024-03-02T04:42:34;114.45;;;44.83;;
4565;SDS011;2295;51.050;14.608;2024-03-02T04:45:03;114.78;;;44.00;;
4565;SDS011;2295;51.050;14.608;2024-03-02T04:47:31;123.22;;;46.72;;
4565;SDS011;2295;51.050;14.608;2024-03-02T04:50:00;114.05;;;44.50;;
4565;SDS011;2295;51.050;14.608;2024-03-02T04:52:28;115.28;;;44.58;;
4565;SDS011;2295;51.050;14.608;2024-03-02T04:54:56;116.65;;;46.03;;
4565;SDS011;2295;51.050;14.608;2024-03-02T04:57:43;126.68;;;45.88;;
4565;SDS011;2295;51.050;14.608;2024-03-02T05:00:13;120.88;;;44.67;;
4565;SDS011;2295;51.050;14.608;2024-03-02T05:02:41;122.78;;;45.03;;
4565;SDS011;2295;51.050;14.608;2024-03-02T05:05:10;109.53;;;40.78;;
4565;SDS011;2295;51.050;14.608;2024-03-02T05:07:38;117.68;;;45.25;;
4565;SDS011;2295;51.050;14.608;2024-03-02T05:10:08;106.78;;;41.25;;
4565;SDS011;2295;51.050;14.608;2024-03-02T05:12:38;123.05;;;43.92;;
4565;SDS011;2295;51.050;14.608;2024-03-02T05:15:25;112.47;;;43.42;;
4565;SDS011;2295;51.050;14.608;2024-03-02T05:17:54;111.32;;;41.85;;
4565;SDS011;2295;51.050;14.608;2024-03-02T05:20:23;114.65;;;41.00;;
4565;SDS011;2295;51.050;14.608;2024-03-02T05:22:52;103.47;;;41.45;;
4565;SDS011;2295;51.050;14.608;2024-03-02T05:25:20;98.13;;;38.03;;
4565;SDS011;2295;51.050;14.608;2024-03-02T05:27:48;106.88;;;40.15;;
4565;SDS011;2295;51.050;14.608;2024-03-02T05:30:16;93.85;;;38.58;;
4565;SDS011;2295;51.050;14.608;2024-03-02T05:32:46;100.07;;;36.13;;
4565;SDS011;2295;51.050;14.608;2024-03-02T05:35:15;90.03;;;39.13;;
4565;SDS011;2295;51.050;14.608;2024-03-02T05:37:43;94.13;;;37.58;;
4565;SDS011;2295;51.050;14.608;2024-03-02T05:40:11;93.97;;;35.67;;
4565;SDS011;2295;51.050;14.608;2024-03-02T05:42:40;90.20;;;36.67;;
4565;SDS011;2295;51.050;14.608;2024-03-02T05:45:09;91.70;;;36.22;;
4565;SDS011;2295;51.050;14.608;2024-03-02T05:47:37;93.05;;;35.83;;
4565;SDS011;2295;51.050;14.608;2024-03-02T05:50:07;88.13;;;35.47;;
4565;SDS011;2295;51.050;14.608;2024-03-02T05:52:36;99.80;;;35.83;;
4565;SDS011;2295;51.050;14.608;2024-03-02T05:55:05;91.88;;;34.80;;
4565;SDS011;2295;51.050;14.608;2024-03-02T05:57:34;89.55;;;34.65;;
4565;SDS011;2295;51.050;14.608;2024-03-02T06:00:16;78.90;;;32.13;;
4565;SDS011;2295;51.050;14.608;2024-03-02T06:02:45;92.10;;;34.78;;
4565;SDS011;2295;51.050;14.608;2024-03-02T06:05:14;81.63;;;33.08;;
4565;SDS011;2295;51.050;14.608;2024-03-02T06:07:43;82.18;;;33.53;;
4565;SDS011;2295;51.050;14.608;2024-03-02T06:10:12;87.03;;;34.22;;
4565;SDS011;2295;51.050;14.608;2024-03-02T06:12:41;80.97;;;32.85;;
4565;SDS011;2295;51.050;14.608;2024-03-02T06:15:09;77.15;;;31.05;;
4565;SDS011;2295;51.050;14.608;2024-03-02T06:17:38;76.15;;;31.73;;
4565;SDS011;2295;51.050;14.608;2024-03-02T06:20:06;80.05;;;31.25;;
4565;SDS011;2295;51.050;14.608;2024-03-02T06:22:37;62.60;;;28.90;;
4565;SDS011;2295;51.050;14.608;2024-03-02T06:25:06;79.43;;;32.58;;
4565;SDS011;2295;51.050;14.608;2024-03-02T06:27:35;82.07;;;33.90;;
4565;SDS011;2295;51.050;14.608;2024-03-02T06:30:03;66.90;;;28.80;;
4565;SDS011;2295;51.050;14.608;2024-03-02T06:32:32;68.25;;;26.42;;
4565;SDS011;2295;51.050;14.608;2024-03-02T06:35:01;66.47;;;26.55;;
4565;SDS011;2295;51.050;14.608;2024-03-02T06:37:30;61.17;;;24.90;;
4565;SDS011;2295;51.050;14.608;2024-03-02T06:40:00;59.30;;;24.63;;
4565;SDS011;2295;51.050;14.608;2024-03-02T06:42:29;66.35;;;25.75;;
4565;SDS011;2295;51.050;14.608;2024-03-02T06:45:00;60.05;;;24.73;;
4565;SDS011;2295;51.050;14.608;2024-03-02T06:47:28;57.67;;;23.98;;
4565;SDS011;2295;51.050;14.608;2024-03-02T06:49:57;61.30;;;24.50;;
4565;SDS011;2295;51.050;14.608;2024-03-02T06:52:26;54.55;;;25.17;;
4565;SDS011;2295;51.050;14.608;2024-03-02T06:54:54;64.20;;;25.60;;
4565;SDS011;2295;51.050;14.608;2024-03-02T06:57:24;56.83;;;24.35;;
4565;SDS011;2295;51.050;14.608;2024-03-02T06:59:55;55.22;;;23.70;;
4565;SDS011;2295;51.050;14.608;2024-03-02T07:02:25;59.53;;;23.88;;
4565;SDS011;2295;51.050;14.608;2024-03-02T07:04:54;47.47;;;21.30;;
4565;SDS011;2295;51.050;14.608;2024-03-02T07:07:22;54.22;;;22.35;;
4565;SDS011;2295;51.050;14.608;2024-03-02T07:09:50;54.67;;;24.83;;
4565;SDS011;2295;51.050;14.608;2024-03-02T07:12:19;59.97;;;22.80;;
4565;SDS011;2295;51.050;14.608;2024-03-02T07:14:49;51.88;;;22.23;;
4565;SDS011;2295;51.050;14.608;2024-03-02T07:17:38;57.83;;;22.08;;
4565;SDS011;2295;51.050;14.608;2024-03-02T07:20:06;44.88;;;21.73;;
4565;SDS011;2295;51.050;14.608;2024-03-02T07:22:35;48.80;;;21.67;;
4565;SDS011;2295;51.050;14.608;2024-03-02T07:25:07;54.55;;;23.48;;
4565;SDS011;2295;51.050;14.608;2024-03-02T07:27:56;54.28;;;21.92;;
4565;SDS011;2295;51.050;14.608;2024-03-02T07:30:26;54.65;;;21.98;;
4565;SDS011;2295;51.050;14.608;2024-03-02T07:32:57;44.92;;;22.45;;
4565;SDS011;2295;51.050;14.608;2024-03-02T07:35:26;50.70;;;22.02;;
4565;SDS011;2295;51.050;14.608;2024-03-02T07:37:54;53.72;;;23.60;;
4565;SDS011;2295;51.050;14.608;2024-03-02T07:40:23;49.33;;;21.90;;
4565;SDS011;2295;51.050;14.608;2024-03-02T07:42:51;51.92;;;22.70;;
4565;SDS011;2295;51.050;14.608;2024-03-02T07:45:20;45.83;;;21.65;;
4565;SDS011;2295;51.050;14.608;2024-03-02T07:47:49;57.65;;;23.70;;
4565;SDS011;2295;51.050;14.608;2024-03-02T07:50:18;48.50;;;22.05;;
4565;SDS011;2295;51.050;14.608;2024-03-02T07:52:46;51.10;;;21.58;;
4565;SDS011;2295;51.050;14.608;2024-03-02T07:55:15;45.13;;;19.73;;
4565;SDS011;2295;51.050;14.608;2024-03-02T07:57:43;50.25;;;20.58;;
4565;SDS011;2295;51.050;14.608;2024-03-02T08:00:12;42.40;;;20.77;;
4565;SDS011;2295;51.050;14.608;2024-03-02T08:02:42;45.78;;;19.60;;
4565;SDS011;2295;51.050;14.608;2024-03-02T08:05:11;47.67;;;21.00;;
4565;SDS011;2295;51.050;14.608;2024-03-02T08:07:40;43.15;;;20.30;;
4565;SDS011;2295;51.050;14.608;2024-03-02T08:10:09;40.97;;;19.85;;
4565;SDS011;2295;51.050;14.608;2024-03-02T08:12:37;50.35;;;20.25;;
4565;SDS011;2295;51.050;14.608;2024-03-02T08:15:06;48.33;;;21.10;;
4565;SDS011;2295;51.050;14.608;2024-03-02T08:17:34;45.15;;;20.17;;
4565;SDS011;2295;51.050;14.608;2024-03-02T08:20:04;52.97;;;21.00;;
4565;SDS011;2295;51.050;14.608;2024-03-02T08:22:36;38.70;;;19.40;;
4565;SDS011;2295;51.050;14.608;2024-03-02T08:25:04;41.47;;;19.90;;
4565;SDS011;2295;51.050;14.608;2024-03-02T08:27:34;45.83;;;19.75;;
4565;SDS011;2295;51.050;14.608;2024-03-02T08:30:03;46.72;;;19.45;;
4565;SDS011;2295;51.050;14.608;2024-03-02T08:32:33;44.47;;;19.45;;
4565;SDS011;2295;51.050;14.608;2024-03-02T08:35:02;39.38;;;17.52;;
4565;SDS011;2295;51.050;14.608;2024-03-02T08:37:31;49.17;;;19.45;;
4565;SDS011;2295;51.050;14.608;2024-03-02T08:40:01;35.75;;;18.95;;
4565;SDS011;2295;51.050;14.608;2024-03-02T08:42:33;36.17;;;17.55;;
4565;SDS011;2295;51.050;14.608;2024-03-02T08:45:02;35.67;;;16.42;;
4565;SDS011;2295;51.050;14.608;2024-03-02T08:47:30;38.38;;;16.60;;
4565;SDS011;2295;51.050;14.608;2024-03-02T08:49:59;39.40;;;18.25;;
4565;SDS011;2295;51.050;14.608;2024-03-02T08:52:28;36.17;;;16.85;;
4565;SDS011;2295;51.050;14.608;2024-03-02T08:54:56;37.38;;;15.95;;
4565;SDS011;2295;51.050;14.608;2024-03-02T08:57:26;40.05;;;16.00;;
4565;SDS011;2295;51.050;14.608;2024-03-02T08:59:54;43.17;;;16.63;;
4565;SDS011;2295;51.050;14.608;2024-03-02T09:02:23;39.70;;;17.17;;
4565;SDS011;2295;51.050;14.608;2024-03-02T09:04:51;37.08;;;16.83;;
4565;SDS011;2295;51.050;14.608;2024-03-02T09:07:20;39.70;;;16.52;;
4565;SDS011;2295;51.050;14.608;2024-03-02T09:09:48;34.83;;;15.98;;
4565;SDS011;2295;51.050;14.608;2024-03-02T09:12:16;34.58;;;14.32;;
4565;SDS011;2295;51.050;14.608;2024-03-02T09:14:47;29.48;;;15.18;;
4565;SDS011;2295;51.050;14.608;2024-03-02T09:17:16;31.10;;;16.15;;
4565;SDS011;2295;51.050;14.608;2024-03-02T09:19:44;27.45;;;15.05;;
4565;SDS011;2295;51.050;14.608;2024-03-02T09:22:13;30.75;;;15.52;;
4565;SDS011;2295;51.050;14.608;2024-03-02T09:24:42;30.45;;;15.73;;
4565;SDS011;2295;51.050;14.608;2024-03-02T09:27:10;135.45;;;47.58;;
4565;SDS011;2295;51.050;14.608;2024-03-02T09:29:39;48.53;;;20.45;;
4565;SDS011;2295;51.050;14.608;2024-03-02T09:32:11;31.60;;;14.32;;
4565;SDS011;2295;51.050;14.608;2024-03-02T09:34:40;32.15;;;16.23;;
4565;SDS011;2295;51.050;14.608;2024-03-02T09:37:09;37.72;;;15.88;;
4565;SDS011;2295;51.050;14.608;2024-03-02T09:39:38;34.13;;;15.98;;
4565;SDS011;2295;51.050;14.608;2024-03-02T09:42:07;39.67;;;19.27;;
4565;SDS011;2295;51.050;14.608;2024-03-02T09:44:35;35.03;;;15.40;;
4565;SDS011;2295;51.050;14.608;2024-03-02T09:47:06;33.80;;;15.93;;
4565;SDS011;2295;51.050;14.608;2024-03-02T09:49:42;55.30;;;29.92;;
4565;SDS011;2295;51.050;14.608;2024-03-02T09:52:11;33.72;;;17.20;;
4565;SDS011;2295;51.050;14.608;2024-03-02T09:54:41;28.48;;;14.60;;
4565;SDS011;2295;51.050;14.608;2024-03-02T09:57:09;87.30;;;51.05;;
4565;SDS011;2295;51.050;14.608;2024-03-02T09:59:38;29.52;;;13.88;;
4565;SDS011;2295;51.050;14.608;2024-03-02T10:02:06;36.20;;;18.17;;
4565;SDS011;2295;51.050;14.608;2024-03-02T10:04:36;37.72;;;21.35;;
4565;SDS011;2295;51.050;14.608;2024-03-02T10:07:11;41.33;;;21.90;;
4565;SDS011;2295;51.050;14.608;2024-03-02T10:09:42;58.07;;;29.70;;
4565;SDS011;2295;51.050;14.608;2024-03-02T10:12:13;38.03;;;19.27;;
4565;SDS011;2295;51.050;14.608;2024-03-02T10:14:43;41.45;;;19.38;;
4565;SDS011;2295;51.050;14.608;2024-03-02T10:17:21;32.00;;;14.52;;
4565;SDS011;2295;51.050;14.608;2024-03-02T10:19:50;26.80;;;14.35;;
4565;SDS011;2295;51.050;14.608;2024-03-02T10:22:19;32.40;;;15.50;;
4565;SDS011;2295;51.050;14.608;2024-03-02T10:24:53;34.40;;;14.90;;
4565;SDS011;2295;51.050;14.608;2024-03-02T10:27:26;32.10;;;15.10;;
4565;SDS011;2295;51.050;14.608;2024-03-02T10:29:56;33.20;;;15.98;;
4565;SDS011;2295;51.050;14.608;2024-03-02T10:32:24;37.28;;;17.02;;
4565;SDS011;2295;51.050;14.608;2024-03-02T10:34:55;33.85;;;16.70;;
4565;SDS011;2295;51.050;14.608;2024-03-02T10:37:23;35.92;;;17.02;;
4565;SDS011;2295;51.050;14.608;2024-03-02T10:39:52;35.17;;;16.83;;
4565;SDS011;2295;51.050;14.608;2024-03-02T10:42:23;34.30;;;16.98;;
4565;SDS011;2295;51.050;14.608;2024-03-02T10:44:52;31.13;;;15.05;;
4565;SDS011;2295;51.050;14.608;2024-03-02T10:47:20;33.05;;;15.10;;
4565;SDS011;2295;51.050;14.608;2024-03-02T10:49:51;32.72;;;16.20;;
4565;SDS011;2295;51.050;14.608;2024-03-02T10:52:21;31.75;;;16.63;;
4565;SDS011;2295;51.050;14.608;2024-03-02T10:54:50;29.60;;;14.95;;
4565;SDS011;2295;51.050;14.608;2024-03-02T10:57:19;32.58;;;15.63;;
4565;SDS011;2295;51.050;14.608;2024-03-02T10:59:51;30.50;;;16.10;;
4565;SDS011;2295;51.050;14.608;2024-03-02T11:02:24;38.05;;;15.73;;
4565;SDS011;2295;51.050;14.608;2024-03-02T11:04:55;28.45;;;15.23;;
4565;SDS011;2295;51.050;14.608;2024-03-02T11:07:28;32.58;;;16.55;;
4565;SDS011;2295;51.050;14.608;2024-03-02T11:09:57;28.02;;;14.68;;
4565;SDS011;2295;51.050;14.608;2024-03-02T11:12:35;27.48;;;14.90;;
4565;SDS011;2295;51.050;14.608;2024-03-02T11:15:10;33.42;;;15.75;;
4565;SDS011;2295;51.050;14.608;2024-03-02T11:17:41;35.22;;;14.82;;
4565;SDS011;2295;51.050;14.608;2024-03-02T11:20:10;31.52;;;15.50;;
4565;SDS011;2295;51.050;14.608;2024-03-02T11:22:40;27.42;;;13.90;;
4565;SDS011;2295;51.050;14.608;2024-03-02T11:25:13;29.27;;;14.40;;
4565;SDS011;2295;51.050;14.608;2024-03-02T11:28:00;31.73;;;14.07;;
4565;SDS011;2295;51.050;14.608;2024-03-02T11:30:48;25.25;;;13.57;;
4565;SDS011;2295;51.050;14.608;2024-03-02T11:33:24;24.60;;;12.98;;
4565;SDS011;2295;51.050;14.608;2024-03-02T11:35:57;25.83;;;13.88;;
4565;SDS011;2295;51.050;14.608;2024-03-02T11:38:34;27.15;;;13.20;;
4565;SDS011;2295;51.050;14.608;2024-03-02T11:41:05;25.15;;;13.55;;
4565;SDS011;2295;51.050;14.608;2024-03-02T11:43:39;26.80;;;13.63;;
4565;SDS011;2295;51.050;14.608;2024-03-02T11:46:07;25.17;;;13.27;;
4565;SDS011;2295;51.050;14.608;2024-03-02T11:48:36;26.20;;;13.80;;
4565;SDS011;2295;51.050;14.608;2024-03-02T11:51:06;28.17;;;13.23;;
4565;SDS011;2295;51.050;14.608;2024-03-02T11:53:36;25.88;;;13.70;;
4565;SDS011;2295;51.050;14.608;2024-03-02T11:56:07;29.75;;;15.80;;
4565;SDS011;2295;51.050;14.608;2024-03-02T11:58:38;23.52;;;13.52;;
4565;SDS011;2295;51.050;14.608;2024-03-02T12:01:09;20.75;;;11.82;;
4565;SDS011;2295;51.050;14.608;2024-03-02T12:03:38;24.23;;;13.52;;
4565;SDS011;2295;51.050;14.608;2024-03-02T12:06:07;27.13;;;13.65;;
4565;SDS011;2295;51.050;14.608;2024-03-02T12:08:37;26.33;;;13.73;;
4565;SDS011;2295;51.050;14.608;2024-03-02T12:11:06;30.13;;;12.88;;
4565;SDS011;2295;51.050;14.608;2024-03-02T12:13:35;30.67;;;13.70;;
4565;SDS011;2295;51.050;14.608;2024-03-02T12:16:03;25.85;;;13.93;;
4565;SDS011;2295;51.050;14.608;2024-03-02T12:18:33;26.75;;;14.43;;
4565;SDS011;2295;51.050;14.608;2024-03-02T12:21:02;29.15;;;13.98;;
4565;SDS011;2295;51.050;14.608;2024-03-02T12:23:33;27.70;;;13.63;;
4565;SDS011;2295;51.050;14.608;2024-03-02T12:26:03;28.35;;;14.63;;
4565;SDS011;2295;51.050;14.608;2024-03-02T12:28:32;30.42;;;15.75;;
4565;SDS011;2295;51.050;14.608;2024-03-02T12:31:01;28.73;;;15.52;;
4565;SDS011;2295;51.050;14.608;2024-03-02T12:33:29;27.52;;;14.93;;
4565;SDS011;2295;51.050;14.608;2024-03-02T12:35:58;26.42;;;13.90;;
4565;SDS011;2295;51.050;14.608;2024-03-02T12:38:26;46.33;;;19.48;;
4565;SDS011;2295;51.050;14.608;2024-03-02T12:40:56;36.72;;;16.65;;
4565;SDS011;2295;51.050;14.608;2024-03-02T12:43:29;29.70;;;15.35;;
4565;SDS011;2295;51.050;14.608;2024-03-02T12:45:58;31.73;;;15.00;;
4565;SDS011;2295;51.050;14.608;2024-03-02T12:48:26;29.20;;;15.65;;
4565;SDS011;2295;51.050;14.608;2024-03-02T12:50:55;23.63;;;13.35;;
4565;SDS011;2295;51.050;14.608;2024-03-02T12:53:24;26.40;;;14.25;;
4565;SDS011;2295;51.050;14.608;2024-03-02T12:55:52;24.75;;;14.25;;
4565;SDS011;2295;51.050;14.608;2024-03-02T12:58:22;65.10;;;30.40;;
4565;SDS011;2295;51.050;14.608;2024-03-02T13:00:55;64.43;;;30.05;;
4565;SDS011;2295;51.050;14.608;2024-03-02T13:03:35;65.07;;;29.92;;
4565;SDS011;2295;51.050;14.608;2024-03-02T13:06:04;67.13;;;27.70;;
4565;SDS011;2295;51.050;14.608;2024-03-02T13:08:33;30.23;;;14.95;;
4565;SDS011;2295;51.050;14.608;2024-03-02T13:11:01;33.28;;;17.20;;
4565;SDS011;2295;51.050;14.608;2024-03-02T13:13:33;162.35;;;56.45;;
4565;SDS011;2295;51.050;14.608;2024-03-02T13:16:03;67.60;;;28.55;;
4565;SDS011;2295;51.050;14.608;2024-03-02T13:18:35;48.80;;;21.92;;
4565;SDS011;2295;51.050;14.608;2024-03-02T13:21:03;60.55;;;22.38;;
4565;SDS011;2295;51.050;14.608;2024-03-02T13:23:32;55.03;;;24.83;;
4565;SDS011;2295;51.050;14.608;2024-03-02T13:26:00;31.05;;;16.05;;
4565;SDS011;2295;51.050;14.608;2024-03-02T13:28:29;40.03;;;19.08;;
4565;SDS011;2295;51.050;14.608;2024-03-02T13:30:57;31.80;;;16.92;;
4565;SDS011;2295;51.050;14.608;2024-03-02T13:33:27;28.52;;;15.85;;
4565;SDS011;2295;51.050;14.608;2024-03-02T13:35:59;32.60;;;17.02;;
4565;SDS011;2295;51.050;14.608;2024-03-02T13:38:29;32.40;;;16.92;;
4565;SDS011;2295;51.050;14.608;2024-03-02T13:40:57;27.45;;;15.38;;
4565;SDS011;2295;51.050;14.608;2024-03-02T13:43:27;34.92;;;16.67;;
4565;SDS011;2295;51.050;14.608;2024-03-02T13:45:58;29.15;;;15.75;;
4565;SDS011;2295;51.050;14.608;2024-03-02T13:48:30;34.55;;;17.55;;
4565;SDS011;2295;51.050;14.608;2024-03-02T13:50:59;28.30;;;15.65;;
4565;SDS011;2295;51.050;14.608;2024-03-02T13:53:27;42.08;;;17.27;;
4565;SDS011;2295;51.050;14.608;2024-03-02T13:55:55;32.15;;;16.90;;
4565;SDS011;2295;51.050;14.608;2024-03-02T13:58:24;32.35;;;17.92;;
4565;SDS011;2295;51.050;14.608;2024-03-02T14:00:53;38.38;;;18.35;;
4565;SDS011;2295;51.050;14.608;2024-03-02T14:03:22;30.65;;;17.30;;
4565;SDS011;2295;51.050;14.608;2024-03-02T14:05:58;40.47;;;22.02;;
4565;SDS011;2295;51.050;14.608;2024-03-02T14:08:26;36.88;;;18.42;;
4565;SDS011;2295;51.050;14.608;2024-03-02T14:10:54;47.40;;;23.60;;
4565;SDS011;2295;51.050;14.608;2024-03-02T14:13:26;42.13;;;21.20;;
4565;SDS011;2295;51.050;14.608;2024-03-02T14:15:55;42.88;;;22.83;;
4565;SDS011;2295;51.050;14.608;2024-03-02T14:18:24;43.22;;;20.48;;
4565;SDS011;2295;51.050;14.608;2024-03-02T14:20:53;49.33;;;25.00;;
4565;SDS011;2295;51.050;14.608;2024-03-02T14:23:24;37.10;;;18.50;;
4565;SDS011;2295;51.050;14.608;2024-03-02T14:25:54;31.85;;;17.05;;
4565;SDS011;2295;51.050;14.608;2024-03-02T14:28:23;30.02;;;16.52;;
4565;SDS011;2295;51.050;14.608;2024-03-02T14:31:11;57.05;;;24.90;;
4565;SDS011;2295;51.050;14.608;2024-03-02T14:33:40;36.70;;;20.88;;
4565;SDS011;2295;51.050;14.608;2024-03-02T14:36:09;84.57;;;38.13;;
4565;SDS011;2295;51.050;14.608;2024-03-02T14:38:38;228.90;;;90.35;;
4565;SDS011;2295;51.050;14.608;2024-03-02T14:41:07;662.03;;;336.67;;
4565;SDS011;2295;51.050;14.608;2024-03-02T14:43:37;303.50;;;167.10;;
4565;SDS011;2295;51.050;14.608;2024-03-02T14:46:08;99.47;;;48.28;;
4565;SDS011;2295;51.050;14.608;2024-03-02T14:48:36;59.10;;;32.13;;